Time;durP1;ratioP1;P1;durP2;ratioP2;P2;SDS_P1;SDS_P2;PMS_P1;PMS_P2;Temp;Humidity;BMP_temperature;BMP_pressure;BME280_temperature;BME280_humidity;BME280_pressure;Samples;Min_cycle;Max_cycle;Signal;HPM_P1;HPM_P2
2021/10/02 00:45:01;;;;;;;17.60;11.57;;;;;;;5.06;100.00;102507.63;1814216;79;21136;-92
2021/10/02 00:47:36;;;;;;;16.20;11.45;;;;;;;4.97;100.00;102511.69;1793384;79;21100;-94
2021/10/02 00:50:06;;;;;;;20.77;11.85;;;;;;;4.81;100.00;102508.59;1813967;78;21521;-90
2021/10/02 00:52:34;;;;;;;18.85;12.03;;;;;;;4.68;100.00;102504.98;1793603;79;21576;-93
2021/10/02 00:55:01;;;;;;;18.27;10.88;;;;;;;4.55;100.00;102506.08;1793337;78;21073;-93
2021/10/02 00:57:29;;;;;;;29.67;12.05;;;;;;;4.38;100.00;102502.09;1761525;79;21082;-93
2021/10/02 00:59:56;;;;;;;25.25;10.58;;;;;;;4.26;100.00;102504.47;1790512;79;21073;-91
2021/10/02 01:02:39;;;;;;;19.35;11.22;;;;;;;4.19;100.00;102503.33;1814373;78;21132;-90
2021/10/02 01:05:23;;;;;;;16.48;10.90;;;;;;;4.16;100.00;102504.66;1791208;78;21050;-91
2021/10/02 01:08:21;;;;;;;17.12;9.93;;;;;;;4.18;100.00;102506.33;1779884;79;21094;-91
2021/10/02 01:10:57;;;;;;;18.30;11.35;;;;;;;4.25;100.00;102501.92;1785526;79;21108;-89
2021/10/02 01:14:05;;;;;;;15.03;10.18;;;;;;;4.14;100.00;102506.41;1781874;78;21046;-90
2021/10/02 01:16:41;;;;;;;17.07;10.53;;;;;;;4.02;100.00;102504.89;1784971;79;21517;-92
2021/10/02 01:19:36;;;;;;;14.85;11.33;;;;;;;3.89;100.00;102505.54;1784622;79;21023;-92
2021/10/02 01:22:31;;;;;;;15.58;10.63;;;;;;;3.82;100.00;102503.52;1804877;79;20988;-89
2021/10/02 01:25:40;;;;;;;14.45;9.90;;;;;;;3.71;100.00;102507.56;1768222;79;21044;-91
2021/10/02 01:28:17;;;;;;;13.93;10.00;;;;;;;3.63;100.00;102509.41;1802608;78;21024;-90
2021/10/02 01:30:57;;;;;;;15.40;9.23;;;;;;;3.56;100.00;102505.23;1783878;79;21102;-94
2021/10/02 01:33:52;;;;;;;12.47;9.00;;;;;;;3.50;100.00;102507.87;1798703;79;21051;-90
2021/10/02 01:36:47;;;;;;;12.00;8.90;;;;;;;3.42;100.00;102504.14;1781280;79;21438;-90
2021/10/02 01:47:46;;;;;;;15.53;9.48;;;;;;;3.89;100.00;102498.67;1781971;80;21034;-89
2021/10/02 01:50:13;;;;;;;12.37;9.48;;;;;;;3.87;100.00;102497.00;1761969;80;21065;-90
2021/10/02 01:52:43;;;;;;;18.27;9.28;;;;;;;3.78;100.00;102499.28;1742263;79;21065;-91
2021/10/02 01:55:12;;;;;;;13.90;8.90;;;;;;;3.74;100.00;102498.93;1735956;81;21056;-90
2021/10/02 01:57:48;;;;;;;11.60;8.58;;;;;;;3.82;100.00;102497.50;1714509;82;21520;-90
2021/10/02 02:00:16;;;;;;;13.22;8.78;;;;;;;3.94;100.00;102502.47;1675681;84;21572;-90
2021/10/02 02:02:53;;;;;;;12.80;8.93;;;;;;;4.10;100.00;102505.20;1699244;82;21487;-89
2021/10/02 02:05:24;;;;;;;10.63;8.53;;;;;;;4.23;100.00;102501.96;1655343;85;21498;-89
2021/10/02 02:07:58;;;;;;;12.80;9.78;;;;;;;4.22;100.00;102498.97;1734879;82;21037;-89
2021/10/02 02:10:27;;;;;;;13.05;9.70;;;;;;;4.18;100.00;102502.91;1651886;85;21022;-88
2021/10/02 02:12:59;;;;;;;17.57;10.40;;;;;;;4.13;100.00;102500.87;1679294;84;20983;-88
2021/10/02 02:15:33;;;;;;;21.90;9.80;;;;;;;4.08;100.00;102500.49;1655256;84;21030;-87
2021/10/02 02:18:06;;;;;;;13.45;9.33;;;;;;;4.04;100.00;102500.58;1679762;82;21132;-90
2021/10/02 02:20:41;;;;;;;13.00;9.78;;;;;;;4.07;100.00;102498.79;1681125;84;21002;-90
2021/10/02 02:23:11;;;;;;;15.55;9.30;;;;;;;4.17;100.00;102496.05;1735119;81;21041;-90
2021/10/02 02:25:39;;;;;;;14.20;9.98;;;;;;;4.27;100.00;102497.59;1708505;82;21040;-89
2021/10/02 02:28:09;;;;;;;23.67;9.85;;;;;;;4.28;100.00;102498.01;1734976;81;21050;-93
2021/10/02 02:30:37;;;;;;;20.72;10.60;;;;;;;4.24;100.00;102490.77;1714053;82;21089;-87
2021/10/02 02:33:05;;;;;;;18.32;10.72;;;;;;;4.29;100.00;102498.39;1714171;82;21081;-91
2021/10/02 02:35:34;;;;;;;16.93;10.82;;;;;;;4.35;100.00;102493.14;1714091;82;21073;-88
2021/10/02 02:38:01;;;;;;;13.75;9.43;;;;;;;4.41;100.00;102498.60;1714422;82;21053;-89
2021/10/02 02:40:28;;;;;;;13.40;9.88;;;;;;;4.40;100.00;102499.05;1713953;82;21537;-87
2021/10/02 02:42:56;;;;;;;14.23;9.93;;;;;;;4.38;100.00;102498.68;1735026;81;21706;-88
2021/10/02 02:45:24;;;;;;;13.60;9.23;;;;;;;4.36;100.00;102504.30;1734880;81;21591;-89
2021/10/02 02:48:11;;;;;;;14.53;9.50;;;;;;;4.26;100.00;102508.33;1714135;82;21077;-92
2021/10/02 02:51:05;;;;;;;16.32;9.85;;;;;;;4.13;100.00;102513.31;1712326;82;21575;-90
2021/10/02 02:54:00;;;;;;;11.88;8.83;;;;;;;4.10;100.00;102510.35;1712540;82;21069;-89
2021/10/02 02:56:42;;;;;;;14.93;9.18;;;;;;;4.08;100.00;102513.84;1712756;81;21172;-91
2021/10/02 02:59:30;;;;;;;23.92;10.30;;;;;;;3.93;100.00;102504.63;1734919;82;21679;-89
2021/10/02 03:02:02;;;;;;;14.83;9.30;;;;;;;3.91;100.00;102508.95;1732484;81;21042;-90
2021/10/02 03:04:33;;;;;;;30.72;10.20;;;;;;;4.05;100.00;102513.42;1714298;82;21069;-90
2021/10/02 03:07:04;;;;;;;516.95;37.95;;;;;;;4.21;100.00;102516.60;1710643;82;21006;-87
2021/10/02 03:09:36;;;;;;;231.05;22.20;;;;;;;4.35;100.00;102516.78;1713924;82;21109;-86
2021/10/02 03:12:07;;;;;;;73.83;11.83;;;;;;;4.55;100.00;102519.85;1731843;81;21498;-85
2021/10/02 03:14:38;;;;;;;124.00;14.00;;;;;;;4.66;100.00;102519.64;1748444;80;21434;-85
2021/10/02 03:17:08;;;;;;;98.00;13.88;;;;;;;4.74;100.00;102521.63;1745073;81;20970;-89
2021/10/02 03:19:38;;;;;;;26.50;9.20;;;;;;;4.89;100.00;102520.90;1766906;79;21010;-86
2021/10/02 03:22:08;;;;;;;63.85;11.43;;;;;;;4.94;100.00;102522.09;1766829;79;21996;-86
2021/10/02 03:24:39;;;;;;;64.58;11.55;;;;;;;4.84;100.00;102522.73;1744867;81;21088;-83
2021/10/02 03:27:09;;;;;;;81.95;14.35;;;;;;;4.81;100.00;102526.66;1745605;81;21037;-88
2021/10/02 03:29:38;;;;;;;75.47;14.85;;;;;;;4.85;100.00;102525.70;1745401;81;21014;-88
2021/10/02 03:32:08;;;;;;;34.48;13.83;;;;;;;4.88;100.00;102522.64;1745450;79;21635;-86
2021/10/02 03:34:37;;;;;;;27.22;13.22;;;;;;;4.98;100.00;102525.01;1745399;81;21208;-89
2021/10/02 03:37:05;;;;;;;58.98;18.02;;;;;;;4.97;100.00;102525.89;1745400;81;21567;-89
2021/10/02 03:39:32;;;;;;;42.73;16.97;;;;;;;4.96;100.00;102521.18;1745050;81;21496;-85
2021/10/02 03:42:16;;;;;;;50.10;16.77;;;;;;;5.04;100.00;102522.32;1765523;80;21749;-84
2021/10/02 03:44:48;;;;;;;34.65;13.35;;;;;;;5.07;100.00;102519.66;1748340;80;21004;-86
2021/10/02 03:47:17;;;;;;;47.88;12.47;;;;;;;5.01;100.00;102511.59;1757613;81;21198;-86
2021/10/02 03:49:45;;;;;;;31.20;11.75;;;;;;;4.92;100.00;102519.56;1741361;81;21073;-85
2021/10/02 03:52:13;;;;;;;21.80;10.38;;;;;;;4.86;100.00;102524.40;1760858;80;21095;-85
2021/10/02 03:54:41;;;;;;;39.50;10.58;;;;;;;4.84;100.00;102524.86;1671659;85;21111;-86
2021/10/02 03:57:08;;;;;;;32.03;10.13;;;;;;;4.83;100.00;102524.45;1668547;82;21608;-89
2021/10/02 03:59:35;;;;;;;17.57;9.30;;;;;;;4.80;100.00;102527.53;1710301;82;21095;-89
2021/10/02 04:02:03;;;;;;;15.20;9.10;;;;;;;4.77;100.00;102526.33;1717180;82;21583;-84
2021/10/02 04:04:30;;;;;;;18.05;10.03;;;;;;;4.71;100.00;102530.70;1720668;82;21058;-88
2021/10/02 04:06:58;;;;;;;20.02;10.60;;;;;;;4.69;100.00;102535.05;1719657;82;21093;-83
2021/10/02 04:09:26;;;;;;;16.55;10.00;;;;;;;4.69;100.00;102537.63;1720791;82;21069;-89
2021/10/02 04:11:54;;;;;;;20.00;10.88;;;;;;;4.66;100.00;102538.99;1742322;81;21156;-86
2021/10/02 04:14:22;;;;;;;38.05;11.83;;;;;;;4.58;100.00;102533.97;1715834;82;21055;-82
2021/10/02 04:16:51;;;;;;;17.60;10.40;;;;;;;4.46;100.00;102539.38;1787965;80;21011;-85
2021/10/02 04:19:19;;;;;;;15.72;10.05;;;;;;;4.39;100.00;102537.79;1765368;80;21087;-82
2021/10/02 04:21:47;;;;;;;15.80;10.13;;;;;;;4.25;100.00;102533.70;1787643;80;20989;-86
2021/10/02 04:24:14;;;;;;;13.08;9.90;;;;;;;4.18;100.00;102539.85;1765701;80;21833;-85
2021/10/02 04:26:41;;;;;;;12.40;9.38;;;;;;;4.16;100.00;102538.19;1765754;79;21416;-89
2021/10/02 04:29:10;;;;;;;15.75;10.32;;;;;;;4.10;100.00;102537.42;1791710;79;21024;-87
2021/10/02 04:31:38;;;;;;;14.05;10.75;;;;;;;4.01;100.00;102528.97;1782759;79;21053;-83
2021/10/02 04:34:05;;;;;;;13.20;10.20;;;;;;;3.91;100.00;102531.73;1782417;79;21089;-83
2021/10/02 04:36:34;;;;;;;13.90;9.83;;;;;;;3.85;100.00;102536.13;1782093;79;21108;-85
2021/10/02 04:39:02;;;;;;;19.87;11.43;;;;;;;3.77;100.00;102526.79;1804721;79;21066;-83
2021/10/02 04:41:29;;;;;;;16.00;10.28;;;;;;;3.72;100.00;102531.59;1782321;79;21085;-84
2021/10/02 04:43:56;;;;;;;17.98;11.08;;;;;;;3.66;100.00;102535.11;1779632;79;21054;-85
2021/10/02 04:46:23;;;;;;;15.08;10.38;;;;;;;3.66;100.00;102534.27;1773938;79;21566;-83
2021/10/02 04:48:52;;;;;;;15.28;10.65;;;;;;;3.62;100.00;102531.73;1800670;79;21405;-84
2021/10/02 04:51:19;;;;;;;17.87;11.88;;;;;;;3.59;100.00;102531.80;1803279;78;21054;-83
2021/10/02 04:53:47;;;;;;;19.52;11.15;;;;;;;3.57;100.00;102528.80;1753016;79;21423;-84
2021/10/02 04:56:17;;;;;;;18.65;11.28;;;;;;;3.55;100.00;102535.28;1764242;79;21024;-83
2021/10/02 04:58:44;;;;;;;18.73;11.20;;;;;;;3.55;100.00;102533.98;1752792;80;21076;-85
2021/10/02 05:01:11;;;;;;;15.72;10.82;;;;;;;3.56;100.00;102533.12;1753025;79;21539;-84
2021/10/02 05:03:41;;;;;;;17.00;11.25;;;;;;;3.61;100.00;102533.05;1774470;80;21009;-87
2021/10/02 05:06:08;;;;;;;15.98;11.48;;;;;;;3.67;100.00;102534.69;1752807;79;21175;-82
2021/10/02 05:08:37;;;;;;;17.42;11.28;;;;;;;3.79;100.00;102535.77;1749294;80;21750;-82
2021/10/02 05:11:05;;;;;;;16.95;11.75;;;;;;;3.79;100.00;102535.77;1749471;80;21068;-85
2021/10/02 05:13:34;;;;;;;27.42;10.88;;;;;;;3.86;100.00;102532.67;1772609;80;21558;-84
2021/10/02 05:16:04;;;;;;;16.45;11.00;;;;;;;3.94;100.00;102535.98;1749008;81;21504;-84
2021/10/02 05:18:31;;;;;;;16.50;10.30;;;;;;;4.08;100.00;102537.88;1769949;80;21051;-84
2021/10/02 05:20:59;;;;;;;15.98;11.10;;;;;;;4.19;100.00;102538.98;1771740;80;21535;-84
2021/10/02 05:23:27;;;;;;;17.50;10.40;;;;;;;4.32;100.00;102535.75;1774538;80;21017;-84
2021/10/02 05:25:54;;;;;;;13.88;9.95;;;;;;;4.46;100.00;102530.34;1753204;80;21080;-85
2021/10/02 05:28:23;;;;;;;16.07;10.75;;;;;;;4.62;100.00;102534.75;1752829;80;21503;-84
2021/10/02 05:30:52;;;;;;;18.00;11.15;;;;;;;4.77;100.00;102537.94;1753217;79;21147;-83
2021/10/02 05:33:19;;;;;;;16.20;12.07;;;;;;;4.88;100.00;102534.27;1752816;80;21064;-83
2021/10/02 05:35:46;;;;;;;57.90;15.18;;;;;;;4.99;100.00;102531.45;1753181;80;21119;-85
2021/10/02 05:38:14;;;;;;;18.80;11.40;;;;;;;5.08;100.00;102526.98;1752970;80;21539;-81
2021/10/02 05:40:41;;;;;;;28.85;12.30;;;;;;;5.24;100.00;102525.77;1753112;80;21678;-83
2021/10/02 05:43:08;;;;;;;52.55;13.32;;;;;;;5.40;100.00;102518.50;1774710;80;21096;-83
2021/10/02 05:45:35;;;;;;;16.90;11.80;;;;;;;5.56;100.00;102531.06;1753296;80;21049;-83
2021/10/02 05:48:03;;;;;;;23.35;12.60;;;;;;;5.66;100.00;102525.64;1753041;80;21111;-82
2021/10/02 05:50:30;;;;;;;19.00;11.22;;;;;;;5.78;100.00;102532.25;1753233;80;21065;-84
2021/10/02 05:52:57;;;;;;;21.27;11.50;;;;;;;5.90;100.00;102530.27;1748367;80;21005;-86
2021/10/02 05:55:25;;;;;;;15.68;11.40;;;;;;;6.03;100.00;102529.55;1744926;79;21032;-82
2021/10/02 05:57:54;;;;;;;17.37;11.90;;;;;;;6.14;100.00;102519.76;1756867;80;21086;-84
2021/10/02 06:00:21;;;;;;;15.43;10.13;;;;;;;6.28;100.00;102525.45;1756064;80;21554;-83
2021/10/02 06:02:48;;;;;;;20.43;11.78;;;;;;;6.45;100.00;102526.70;1747871;81;21133;-85
2021/10/02 06:05:17;;;;;;;15.55;10.23;;;;;;;6.61;100.00;102530.56;1735300;81;21138;-85
2021/10/02 06:07:46;;;;;;;17.02;10.38;;;;;;;6.76;100.00;102521.53;1747606;80;21087;-82
2021/10/02 06:10:13;;;;;;;15.68;10.45;;;;;;;6.92;100.00;102524.97;1747636;80;21063;-83
2021/10/02 06:12:40;;;;;;;18.32;10.50;;;;;;;7.05;100.00;102522.41;1747920;80;21063;-84
2021/10/02 06:15:08;;;;;;;17.32;10.88;;;;;;;7.20;100.00;102526.30;1735010;81;21420;-84
2021/10/02 06:17:36;;;;;;;14.95;10.05;;;;;;;7.33;100.00;102520.30;1734861;80;21035;-85
2021/10/02 06:20:07;;;;;;;13.25;9.65;;;;;;;7.47;100.00;102512.09;1734940;80;21004;-84
2021/10/02 06:22:34;;;;;;;13.90;9.55;;;;;;;7.60;100.00;102511.69;1735372;81;21031;-84
2021/10/02 06:25:01;;;;;;;14.03;9.38;;;;;;;7.75;100.00;102509.89;1711224;82;21032;-83
2021/10/02 06:27:28;;;;;;;16.15;10.20;;;;;;;7.87;100.00;102504.31;1736075;81;21118;-84
2021/10/02 06:29:55;;;;;;;16.35;8.75;;;;;;;8.01;100.00;102508.17;1744891;81;21048;-82
2021/10/02 06:32:22;;;;;;;12.85;8.48;;;;;;;8.13;100.00;102518.13;1766350;80;21071;-87
2021/10/02 06:34:49;;;;;;;15.98;8.93;;;;;;;8.27;100.00;102510.33;1745396;81;21053;-87
2021/10/02 06:37:16;;;;;;;18.15;8.48;;;;;;;8.37;100.00;102506.52;1745148;81;21155;-86
2021/10/02 06:39:43;;;;;;;14.80;7.87;;;;;;;8.46;100.00;102508.75;1766457;80;21155;-85
2021/10/02 06:42:10;;;;;;;15.55;8.00;;;;;;;8.59;100.00;102512.25;1745252;79;21520;-88
2021/10/02 06:44:37;;;;;;;10.28;7.95;;;;;;;8.69;100.00;102504.53;1767006;80;21163;-85
2021/10/02 06:47:05;;;;;;;13.78;8.20;;;;;;;8.80;100.00;102506.26;1745024;81;21524;-88
2021/10/02 06:49:33;;;;;;;12.13;7.95;;;;;;;8.90;100.00;102507.22;1720693;81;20998;-86
2021/10/02 06:52:00;;;;;;;12.07;8.28;;;;;;;8.99;100.00;102501.20;1745770;78;21070;-85
2021/10/02 06:54:27;;;;;;;15.23;8.03;;;;;;;9.12;100.00;102494.25;1774494;79;21492;-86
2021/10/02 06:56:54;;;;;;;11.50;8.10;;;;;;;9.28;100.00;102495.78;1753140;80;20993;-87
2021/10/02 06:59:25;;;;;;;10.40;7.60;;;;;;;9.41;100.00;102495.70;1753277;80;21115;-88
2021/10/02 07:01:50;;;;;;;22.55;8.00;;;;;;;9.55;100.00;102492.52;1753164;80;21052;-86
2021/10/02 07:04:18;;;;;;;12.07;7.25;;;;;;;9.69;100.00;102491.96;1752830;80;21056;-86
2021/10/02 07:06:46;;;;;;;11.38;7.53;;;;;;;9.83;100.00;102491.39;1774564;79;21001;-86
2021/10/02 07:09:13;;;;;;;9.63;6.60;;;;;;;9.94;99.69;102488.33;1753156;80;21040;-86
2021/10/02 07:11:41;;;;;;;8.85;6.60;;;;;;;10.03;96.81;102488.38;1774689;79;21060;-87
2021/10/02 07:14:08;;;;;;;10.90;7.55;;;;;;;10.10;94.79;102489.37;1753169;80;21037;-87
2021/10/02 07:16:37;;;;;;;10.23;7.25;;;;;;;10.18;96.61;102486.41;1774626;80;21076;-85
2021/10/02 07:19:04;;;;;;;9.53;6.80;;;;;;;10.27;94.09;102483.88;1753309;80;21583;-83
2021/10/02 07:21:33;;;;;;;11.10;6.58;;;;;;;10.38;97.09;102481.66;1774851;80;21060;-87
2021/10/02 07:24:00;;;;;;;7.87;6.37;;;;;;;10.51;84.10;102480.66;1773196;79;20977;-85
2021/10/02 07:26:28;;;;;;;10.58;6.40;;;;;;;10.65;83.14;102477.44;1741353;81;20998;-84
2021/10/02 07:28:56;;;;;;;8.58;6.22;;;;;;;10.80;73.27;102473.73;1768076;81;21197;-89
2021/10/02 07:31:23;;;;;;;7.15;6.08;;;;;;;10.91;71.39;102474.08;1695857;82;21007;-89
2021/10/02 07:33:51;;;;;;;8.40;6.20;;;;;;;11.01;75.21;102475.34;1715604;81;21582;-89
2021/10/02 07:36:20;;;;;;;9.63;6.55;;;;;;;11.13;74.62;102460.88;1736774;81;21069;-87
2021/10/02 07:38:48;;;;;;;7.55;5.90;;;;;;;11.25;71.22;102457.28;1710073;82;21106;-87
2021/10/02 07:41:17;;;;;;;9.75;5.62;;;;;;;11.32;65.31;102455.61;1736438;81;22347;-85
2021/10/02 07:43:49;;;;;;;6.25;5.10;;;;;;;11.43;62.50;102451.61;1715018;82;21070;-89
2021/10/02 07:46:17;;;;;;;8.40;4.58;;;;;;;11.50;61.03;102449.08;1730192;81;21084;-87
2021/10/02 07:48:45;;;;;;;6.55;4.85;;;;;;;11.61;55.77;102449.40;1715189;82;21057;-84
2021/10/02 07:51:13;;;;;;;5.95;4.35;;;;;;;11.72;54.44;102441.02;1715114;82;21493;-87
2021/10/02 07:53:42;;;;;;;14.83;4.85;;;;;;;11.80;51.58;102440.17;1709885;81;22258;-88
2021/10/02 07:56:10;;;;;;;4.72;4.00;;;;;;;11.90;54.36;102436.61;1707451;82;21492;-87
2021/10/02 07:58:38;;;;;;;5.17;4.17;;;;;;;11.99;52.85;102436.17;1707464;83;21086;-87
2021/10/02 08:01:05;;;;;;;7.83;3.80;;;;;;;12.10;51.45;102432.16;1707457;83;20995;-89
2021/10/02 08:03:33;;;;;;;6.05;4.47;;;;;;;12.15;51.38;102430.14;1683989;83;21014;-85
2021/10/02 08:06:01;;;;;;;6.75;4.42;;;;;;;12.22;50.43;102428.06;1707312;83;21074;-86
2021/10/02 08:08:30;;;;;;;5.50;4.22;;;;;;;12.30;51.48;102424.58;1727928;83;21518;-86
2021/10/02 08:10:58;;;;;;;7.50;5.10;;;;;;;12.39;50.15;102428.45;1707304;83;21931;-86
2021/10/02 08:13:25;;;;;;;9.83;4.75;;;;;;;12.44;50.15;102423.36;1707386;83;20991;-88
2021/10/02 08:16:00;;;;;;;5.20;4.12;;;;;;;12.51;50.31;102421.27;1707367;83;21042;-90
2021/10/02 08:18:36;;;;;;;6.50;4.25;;;;;;;12.62;48.56;102411.53;1706827;82;21036;-87
2021/10/02 08:21:01;;;;;;;5.40;4.03;;;;;;;12.72;48.38;102410.55;1724776;81;21057;-89
2021/10/02 08:23:28;;;;;;;13.88;4.42;;;;;;;12.82;48.68;102408.28;1702836;82;21069;-87
2021/10/02 08:25:57;;;;;;;10.10;4.37;;;;;;;12.90;46.29;102405.60;1723697;82;20975;-88
2021/10/02 08:28:29;;;;;;;5.42;4.10;;;;;;;12.99;46.98;102406.84;1702862;81;21128;-90
2021/10/02 08:30:58;;;;;;;7.55;4.40;;;;;;;13.10;46.84;102393.14;1637127;86;21313;-88
2021/10/02 08:33:24;;;;;;;4.55;3.92;;;;;;;13.21;46.89;102397.30;1723846;82;21635;-87
2021/10/02 08:35:52;;;;;;;6.15;3.80;;;;;;;13.29;46.08;102386.41;1702720;83;21129;-87
2021/10/02 08:38:19;;;;;;;6.05;4.12;;;;;;;13.39;45.98;102394.58;1726902;81;21111;-85
2021/10/02 08:40:48;;;;;;;7.22;3.80;;;;;;;13.47;45.78;102386.26;1726858;81;21092;-86
2021/10/02 08:43:16;;;;;;;5.03;4.08;;;;;;;13.54;45.57;102385.81;1727087;82;21550;-87
2021/10/02 08:45:44;;;;;;;8.50;4.95;;;;;;;13.64;43.39;102391.33;1739586;81;21502;-88
2021/10/02 08:48:17;;;;;;;4.33;3.75;;;;;;;13.71;44.79;102386.10;1727197;81;21142;-85
2021/10/02 08:50:46;;;;;;;5.25;4.30;;;;;;;13.78;44.55;102389.68;1739722;81;21056;-85
2021/10/02 08:56:03;;;;;;;6.55;5.15;;;;;;;13.84;43.75;102390.13;1869075;76;23135;-84
2021/10/02 08:58:31;;;;;;;4.92;3.95;;;;;;;13.83;44.25;102387.62;1805153;78;20981;-86
2021/10/02 09:01:00;;;;;;;6.30;4.97;;;;;;;13.89;44.25;102388.55;1824651;78;20942;-85
2021/10/02 09:03:28;;;;;;;5.08;4.58;;;;;;;13.94;43.11;102380.41;1766908;79;21016;-84
2021/10/02 09:05:55;;;;;;;7.40;5.08;;;;;;;13.99;43.21;102390.12;1767007;79;21522;-86
2021/10/02 09:08:23;;;;;;;6.10;4.95;;;;;;;14.03;42.25;102378.53;1766877;78;21107;-88
2021/10/02 09:10:52;;;;;;;31.30;6.25;;;;;;;14.02;41.36;102379.47;1797902;78;21000;-87
2021/10/02 09:13:20;;;;;;;9.95;5.05;;;;;;;14.01;43.85;102379.09;1767188;78;21841;-87
2021/10/02 09:15:48;;;;;;;6.05;4.72;;;;;;;14.12;43.76;102375.35;1798615;78;20988;-87
2021/10/02 09:18:16;;;;;;;6.37;4.80;;;;;;;14.21;44.98;102369.98;1798353;77;20968;-87
2021/10/02 09:20:50;;;;;;;6.28;5.05;;;;;;;14.30;45.26;102373.83;1767106;79;20954;-82
2021/10/02 09:23:24;;;;;;;5.75;4.87;;;;;;;14.39;42.23;102370.59;1788845;78;21552;-87
2021/10/02 09:25:52;;;;;;;6.60;4.30;;;;;;;14.44;43.31;102367.23;1761059;79;21107;-87
2021/10/02 09:28:19;;;;;;;4.58;4.17;;;;;;;14.49;44.20;102367.77;1766926;78;21076;-89
2021/10/02 09:30:47;;;;;;;7.28;4.00;;;;;;;14.58;43.36;102361.56;1767312;79;21005;-86
2021/10/02 09:33:20;;;;;;;4.97;4.42;;;;;;;14.67;40.65;102364.94;1766860;77;21063;-85
2021/10/02 09:35:50;;;;;;;4.67;3.75;;;;;;;14.71;39.40;102362.96;1798396;77;20993;-83
2021/10/02 09:38:20;;;;;;;8.30;5.45;;;;;;;14.75;41.92;102353.48;1767136;79;21083;-84
2021/10/02 09:40:56;;;;;;;7.53;4.05;;;;;;;14.85;41.06;102355.02;1798475;78;21028;-82
2021/10/02 09:43:24;;;;;;;5.05;4.55;;;;;;;14.91;40.20;102347.23;1741818;78;20992;-84
2021/10/02 09:45:52;;;;;;;7.33;4.28;;;;;;;14.95;40.39;102350.00;1798666;78;21032;-88
2021/10/02 09:48:32;;;;;;;3.98;3.50;;;;;;;15.02;40.46;102343.44;1767324;78;21008;-85
2021/10/02 09:51:06;;;;;;;7.83;4.10;;;;;;;15.06;40.06;102342.27;1798466;78;21153;-83
2021/10/02 09:53:40;;;;;;;7.17;3.72;;;;;;;15.10;36.66;102347.67;1764617;78;20989;-85
2021/10/02 09:56:10;;;;;;;5.80;3.60;;;;;;;15.09;38.72;102340.77;1790246;78;21028;-85
2021/10/02 09:58:37;;;;;;;4.35;3.60;;;;;;;15.14;37.58;102337.84;1763670;79;21480;-91
2021/10/02 10:01:08;;;;;;;5.08;3.95;;;;;;;15.20;38.39;102337.88;1763825;78;21056;-86
2021/10/02 10:03:45;;;;;;;4.67;3.90;;;;;;;15.23;38.79;102335.88;1734201;79;21566;-86
2021/10/02 10:06:19;;;;;;;4.12;3.75;;;;;;;15.28;38.47;102338.20;1763850;78;21084;-88
2021/10/02 10:09:11;;;;;;;9.48;3.45;;;;;;;15.37;39.43;102333.63;1779016;78;21040;-88
2021/10/02 10:11:51;;;;;;;8.10;4.05;;;;;;;15.46;36.62;102332.19;1708628;83;20978;-86
2021/10/02 10:14:25;;;;;;;4.15;3.35;;;;;;;15.46;34.82;102334.81;1728897;81;21002;-86
2021/10/02 10:16:57;;;;;;;4.05;3.55;;;;;;;15.46;36.46;102323.82;1728965;82;21821;-87
2021/10/02 10:19:30;;;;;;;9.40;3.40;;;;;;;15.50;35.84;102320.51;1695874;83;21104;-87
2021/10/02 10:22:18;;;;;;;3.25;2.95;;;;;;;15.53;35.49;102320.31;1739353;80;21075;-86
2021/10/02 10:25:03;;;;;;;5.40;3.77;;;;;;;15.54;37.19;102314.58;1755725;80;20986;-88
2021/10/02 10:27:40;;;;;;;8.20;3.12;;;;;;;15.61;36.25;102320.62;1728136;81;21002;-88
2021/10/02 10:30:25;;;;;;;6.00;3.25;;;;;;;15.66;34.94;102322.92;1724652;81;21073;-88
2021/10/02 10:33:10;;;;;;;14.15;4.62;;;;;;;15.69;33.84;102320.06;1727922;81;21002;-87
2021/10/02 10:35:49;;;;;;;3.80;3.40;;;;;;;15.64;34.26;102309.05;1724807;81;20963;-88
2021/10/02 10:38:24;;;;;;;4.37;3.40;;;;;;;15.65;36.47;102295.44;1670359;84;21035;-87
2021/10/02 10:40:53;;;;;;;3.30;2.87;;;;;;;15.74;35.61;102300.87;1722621;81;21912;-86
2021/10/02 10:43:21;;;;;;;4.53;3.27;;;;;;;15.86;36.06;102303.17;1667476;83;21475;-87
2021/10/02 10:45:53;;;;;;;4.53;3.55;;;;;;;15.94;34.64;102268.45;1671309;84;21085;-89
2021/10/02 10:48:17;;;;;;;5.67;3.40;;;;;;;16.00;36.80;102290.83;1701645;80;21107;-88
2021/10/02 10:50:46;;;;;;;4.97;3.62;;;;;;;16.05;34.27;102288.23;1723554;81;20967;-89
2021/10/02 10:53:14;;;;;;;5.37;3.17;;;;;;;16.09;34.32;102287.55;1690022;80;21085;-87
2021/10/02 10:55:52;;;;;;;4.00;3.60;;;;;;;16.09;35.39;102283.11;1761673;79;21069;-89
2021/10/02 10:58:30;;;;;;;5.00;3.40;;;;;;;16.12;34.63;102275.97;1744817;78;20997;-90
2021/10/02 11:01:00;;;;;;;6.15;4.28;;;;;;;16.13;33.70;102284.22;1731979;81;21053;-84
2021/10/02 11:03:44;;;;;;;4.62;3.80;;;;;;;16.04;33.80;102279.98;1738656;81;21010;-88
2021/10/02 11:06:16;;;;;;;6.33;3.02;;;;;;;16.04;33.95;102279.98;1717962;80;21039;-85
2021/10/02 11:09:08;;;;;;;5.50;3.60;;;;;;;16.05;36.07;102268.53;1733398;81;21175;-90
2021/10/02 11:11:54;;;;;;;3.40;3.10;;;;;;;16.10;33.78;102265.58;1731440;81;21089;-84
2021/10/02 11:14:44;;;;;;;6.80;3.12;;;;;;;16.09;34.46;102262.58;1783245;79;21657;-86
2021/10/02 11:17:12;;;;;;;4.97;3.17;;;;;;;16.11;35.14;102265.09;1776003;78;21469;-86
2021/10/02 11:19:44;;;;;;;4.28;2.98;;;;;;;16.14;33.93;102264.39;1786422;78;21618;-87
2021/10/02 11:23:05;;;;;;;3.52;3.22;;;;;;;16.13;34.57;102267.13;1773373;80;21103;-88
2021/10/02 11:25:30;;;;;;;6.97;3.50;;;;;;;16.08;33.71;102263.04;1736422;80;21064;-86
2021/10/02 11:28:25;;;;;;;5.20;2.95;;;;;;;16.04;34.00;102260.28;1714794;82;21041;-84
2021/10/02 11:30:55;;;;;;;2.87;2.50;;;;;;;16.01;32.13;102264.44;1733711;81;21541;-85
2021/10/02 11:33:47;;;;;;;4.92;3.00;;;;;;;15.93;33.95;102257.58;1712309;82;21097;-86
2021/10/02 11:36:40;;;;;;;3.50;2.52;;;;;;;15.87;33.50;102262.80;1732108;80;21464;-84
2021/10/02 11:39:27;;;;;;;5.67;3.15;;;;;;;15.81;33.10;102261.89;1747201;80;21065;-88
2021/10/02 11:42:13;;;;;;;3.35;2.72;;;;;;;15.76;32.79;102263.53;1776123;80;21029;-87
2021/10/02 11:44:49;;;;;;;3.83;3.15;;;;;;;15.74;33.47;102253.61;1746947;80;21528;-87
2021/10/02 11:47:34;;;;;;;3.35;3.00;;;;;;;15.71;32.65;102259.09;1752269;80;21069;-84
2021/10/02 11:50:19;;;;;;;5.05;3.17;;;;;;;15.66;33.84;102257.28;1786701;80;21136;-87
2021/10/02 11:52:54;;;;;;;4.10;3.33;;;;;;;15.63;33.78;102246.98;1787015;80;21085;-85
2021/10/02 11:55:42;;;;;;;5.70;3.20;;;;;;;15.61;34.61;102248.87;1756041;80;21088;-88
2021/10/02 11:58:13;;;;;;;3.95;3.50;;;;;;;15.63;34.32;102252.23;1747066;79;21058;-87
2021/10/02 12:00:50;;;;;;;4.12;3.50;;;;;;;15.66;33.70;102245.92;1777529;79;21438;-88
2021/10/02 12:03:27;;;;;;;4.58;2.83;;;;;;;15.63;32.95;102248.30;1768362;80;21135;-84
2021/10/02 12:06:00;;;;;;;3.92;3.08;;;;;;;15.58;33.93;102245.98;1751025;80;20998;-85
2021/10/02 12:08:30;;;;;;;7.10;3.42;;;;;;;15.54;33.58;102246.31;1730583;80;21526;-85
2021/10/02 12:11:08;;;;;;;5.10;3.27;;;;;;;15.51;33.97;102243.89;1765277;79;21255;-90
2021/10/02 12:13:52;;;;;;;4.42;3.27;;;;;;;15.49;35.39;102242.70;1734594;81;21054;-82
2021/10/02 12:16:28;;;;;;;3.30;2.83;;;;;;;15.48;32.58;102248.06;1761738;79;21154;-88
2021/10/02 12:19:09;;;;;;;4.45;2.95;;;;;;;15.45;32.46;102246.02;1726995;79;21066;-89
2021/10/02 12:21:43;;;;;;;5.08;2.87;;;;;;;15.44;32.79;102245.64;1777736;80;21156;-84
2021/10/02 12:24:31;;;;;;;5.05;3.33;;;;;;;15.41;32.03;102241.94;1747137;80;21054;-85
2021/10/02 12:27:06;;;;;;;5.62;3.30;;;;;;;15.39;33.51;102240.34;1750135;80;21116;-85
2021/10/02 12:29:40;;;;;;;5.12;2.90;;;;;;;15.38;32.71;102238.20;1756878;80;21018;-84
2021/10/02 12:32:13;;;;;;;3.25;2.95;;;;;;;15.37;32.94;102237.01;1786172;80;20986;-85
2021/10/02 12:34:46;;;;;;;7.00;3.03;;;;;;;15.36;32.97;102233.53;1787112;80;21544;-83